createdAt,value
2018-10-09T00:03:35.355Z,21.84
2018-10-09T00:08:38.619Z,21.87
2018-10-09T00:13:41.884Z,21.84
2018-10-09T00:18:45.139Z,21.84
2018-10-09T00:23:48.403Z,21.82
2018-10-09T00:28:51.652Z,21.85
2018-10-09T00:33:54.912Z,21.84
2018-10-09T00:38:58.165Z,21.85
2018-10-09T00:44:01.423Z,21.85
2018-10-09T00:49:04.708Z,21.88
2018-10-09T00:54:07.976Z,21.81
2018-10-09T00:59:11.234Z,21.80
2018-10-09T01:04:14.505Z,21.79
2018-10-09T01:09:17.845Z,21.80
2018-10-09T01:14:21.051Z,21.83
2018-10-09T01:19:24.319Z,21.82
2018-10-09T01:24:27.579Z,21.80
2018-10-09T01:29:30.839Z,21.81
2018-10-09T01:34:34.100Z,21.79
2018-10-09T01:39:37.355Z,21.82
2018-10-09T01:44:40.615Z,21.77
2018-10-09T01:49:43.871Z,21.78
2018-10-09T01:54:47.127Z,21.82
2018-10-09T01:59:50.403Z,21.77
2018-10-09T02:04:53.664Z,21.77
2018-10-09T02:09:56.939Z,21.77
2018-10-09T02:15:00.195Z,21.78
2018-10-09T02:20:03.568Z,21.80
2018-10-09T02:25:06.839Z,21.77
2018-10-09T02:30:10.739Z,21.79
2018-10-09T02:35:13.987Z,21.78
2018-10-09T02:40:17.359Z,21.79
2018-10-09T02:45:20.628Z,21.74
2018-10-09T02:50:23.896Z,21.77
2018-10-09T02:55:27.151Z,21.73
2018-10-09T03:00:30.407Z,21.75
2018-10-09T03:05:33.663Z,21.74
2018-10-09T03:10:36.927Z,21.76
2018-10-09T03:15:40.267Z,21.73
2018-10-09T03:20:43.640Z,21.76
2018-10-09T03:25:46.844Z,21.74
2018-10-09T03:30:50.106Z,21.74
2018-10-09T03:35:53.363Z,21.75
2018-10-09T03:40:56.647Z,21.76
2018-10-09T03:45:59.987Z,21.73
2018-10-09T03:51:03.239Z,21.73
2018-10-09T03:56:06.532Z,21.69
2018-10-09T04:01:09.784Z,21.72
2018-10-09T04:06:13.055Z,21.69
2018-10-09T04:11:16.323Z,21.70
2018-10-09T04:16:19.594Z,21.68
2018-10-09T04:21:22.896Z,21.63
2018-10-09T04:26:26.164Z,21.68
2018-10-09T04:31:29.419Z,21.64
2018-10-09T04:36:32.719Z,21.61
2018-10-09T04:41:36.020Z,21.63
2018-10-09T04:46:39.310Z,21.61
2018-10-09T04:51:42.598Z,21.60
2018-10-09T04:56:45.856Z,21.59
2018-10-09T05:01:49.123Z,21.62
2018-10-09T05:06:52.387Z,21.55
2018-10-09T05:11:55.651Z,21.51
2018-10-09T05:16:59.059Z,21.49
2018-10-09T05:22:02.319Z,21.46
2018-10-09T05:27:05.662Z,21.47
2018-10-09T05:32:08.920Z,21.49
2018-10-09T05:37:12.183Z,21.44
2018-10-09T05:42:15.455Z,21.41
2018-10-09T05:47:18.724Z,21.41
2018-10-09T05:52:22.045Z,21.40
2018-10-09T05:57:25.273Z,21.43
2018-10-09T06:02:28.535Z,21.41
2018-10-09T06:07:31.915Z,21.42
2018-10-09T06:12:35.181Z,21.41
2018-10-09T06:17:38.531Z,21.38
2018-10-09T06:22:41.792Z,21.42
2018-10-09T06:27:45.049Z,21.42
2018-10-09T06:32:48.314Z,21.36
2018-10-09T06:37:51.571Z,21.36
2018-10-09T06:42:54.924Z,21.39
2018-10-09T06:47:58.111Z,21.40
2018-10-09T06:53:01.372Z,21.38
2018-10-09T06:58:04.631Z,21.35
2018-10-09T07:03:07.901Z,21.33
2018-10-09T07:08:11.166Z,21.40
2018-10-09T07:13:14.436Z,21.47
2018-10-09T07:18:17.721Z,21.44
2018-10-09T07:23:20.979Z,21.48
2018-10-09T07:28:24.236Z,21.49
2018-10-09T07:33:27.497Z,21.46
2018-10-09T07:38:30.772Z,21.52
2018-10-09T07:43:34.076Z,21.47
2018-10-09T07:48:37.408Z,21.48
2018-10-09T07:53:40.692Z,21.51
2018-10-09T07:58:44.150Z,21.52
2018-10-09T08:03:47.472Z,21.52
2018-10-09T08:08:50.831Z,21.50
2018-10-09T08:13:54.126Z,21.49
2018-10-09T08:18:57.422Z,21.53
2018-10-09T08:24:00.724Z,21.57
2018-10-09T08:29:04.011Z,21.56
2018-10-09T08:34:07.599Z,21.53
2018-10-09T08:39:10.882Z,21.56
2018-10-09T08:44:14.197Z,21.34
2018-10-09T08:49:17.862Z,20.98
2018-10-09T08:54:21.183Z,20.75
2018-10-09T08:59:24.584Z,20.60
2018-10-09T09:04:27.885Z,20.69
2018-10-09T09:09:31.199Z,20.71
2018-10-09T09:14:34.497Z,20.62
2018-10-09T09:19:37.932Z,20.60
2018-10-09T09:24:41.230Z,20.48
2018-10-09T09:29:44.525Z,20.46
2018-10-09T09:34:47.826Z,20.42
2018-10-09T09:39:51.129Z,20.38
2018-10-09T09:44:54.443Z,20.31
2018-10-09T09:49:57.736Z,20.39
2018-10-09T09:55:01.027Z,20.53
2018-10-09T10:00:04.837Z,20.41
2018-10-09T10:05:08.107Z,20.51
2018-10-09T10:10:11.376Z,20.40
2018-10-09T10:15:14.673Z,20.51
2018-10-09T10:20:17.950Z,20.43
2018-10-09T10:25:21.328Z,20.59
2018-10-09T10:30:24.633Z,20.69
2018-10-09T10:35:27.925Z,20.69
2018-10-09T10:40:32.124Z,20.76
2018-10-09T10:45:35.733Z,20.69
2018-10-09T10:50:39.025Z,20.56
2018-10-09T10:55:42.297Z,20.54
2018-10-09T11:00:45.628Z,20.60
2018-10-09T11:05:48.905Z,20.64
2018-10-09T11:10:52.209Z,20.56
2018-10-09T11:15:55.492Z,20.64
2018-10-09T11:20:58.818Z,20.67
2018-10-09T11:26:02.388Z,20.77
2018-10-09T11:31:05.668Z,20.88
2018-10-09T11:36:08.941Z,20.92
2018-10-09T11:41:12.238Z,20.96
2018-10-09T11:46:15.504Z,20.97
2018-10-09T11:51:18.854Z,21.07
2018-10-09T11:56:22.261Z,21.11
2018-10-09T12:01:25.624Z,21.10
2018-10-09T12:06:28.884Z,21.12
2018-10-09T12:11:32.160Z,21.19
2018-10-09T12:16:35.564Z,21.23
2018-10-09T12:21:38.856Z,21.23
2018-10-09T12:26:42.128Z,21.29
2018-10-09T12:31:45.400Z,21.35
2018-10-09T12:36:48.696Z,21.41
2018-10-09T12:41:51.968Z,21.44
2018-10-09T12:46:55.240Z,21.48
2018-10-09T12:51:58.512Z,21.49
2018-10-09T12:57:01.789Z,21.51
2018-10-09T13:02:05.064Z,21.52
2018-10-09T13:07:08.344Z,21.54
2018-10-09T13:12:11.604Z,21.58
2018-10-09T13:17:14.921Z,21.58
2018-10-09T13:22:18.386Z,21.62
2018-10-09T13:27:21.469Z,21.71
2018-10-09T13:32:24.736Z,21.81
2018-10-09T13:37:28.004Z,21.74
2018-10-09T13:42:31.292Z,21.73
2018-10-09T13:47:34.776Z,21.77
2018-10-09T13:52:38.148Z,21.78
2018-10-09T13:57:41.428Z,21.77
2018-10-09T14:02:44.741Z,21.85
2018-10-09T14:07:48.120Z,21.81
2018-10-09T14:12:51.426Z,21.84
2018-10-09T14:17:54.724Z,21.84
2018-10-09T14:22:58.038Z,21.85
2018-10-09T14:28:01.344Z,21.83
2018-10-09T14:33:04.640Z,21.90
2018-10-09T14:38:07.964Z,21.87
2018-10-09T14:43:11.642Z,21.89
2018-10-09T14:48:14.981Z,21.86
2018-10-09T14:53:18.540Z,21.87
2018-10-09T14:58:21.904Z,21.95
2018-10-09T15:03:25.325Z,21.99
2018-10-09T15:08:28.748Z,22.06
2018-10-09T15:13:33.279Z,22.01
2018-10-09T15:18:37.002Z,22.00
2018-10-09T15:23:40.516Z,21.99
2018-10-09T15:28:43.816Z,21.95
2018-10-09T15:33:47.568Z,21.87
2018-10-09T15:38:51.396Z,21.85
2018-10-09T15:43:54.754Z,21.79
2018-10-09T15:48:58.208Z,21.80
2018-10-09T15:54:01.889Z,21.83
2018-10-09T15:59:05.174Z,21.77
2018-10-09T16:04:08.563Z,21.86
2018-10-09T16:09:12.223Z,21.87
2018-10-09T16:14:15.503Z,21.89
2018-10-09T16:19:18.788Z,22.00
2018-10-09T16:24:22.100Z,22.04
2018-10-09T16:29:25.927Z,22.04
2018-10-09T16:34:29.229Z,22.07
2018-10-09T16:39:32.495Z,22.05
2018-10-09T16:44:35.768Z,22.08
2018-10-09T16:49:39.433Z,22.01
2018-10-09T16:54:42.714Z,21.98
2018-10-09T16:59:46.031Z,22.02
2018-10-09T17:04:49.303Z,22.02
2018-10-09T17:09:52.564Z,22.01
2018-10-09T17:14:55.838Z,21.91
2018-10-09T17:19:59.139Z,21.87
2018-10-09T17:25:02.429Z,22.03
2018-10-09T17:30:07.069Z,21.98
2018-10-09T17:35:10.342Z,22.05
2018-10-09T17:40:13.617Z,22.17
2018-10-09T17:45:16.905Z,22.28
2018-10-09T17:50:20.256Z,22.16
2018-10-09T17:55:23.532Z,22.07
2018-10-09T18:00:29.020Z,22.11
2018-10-09T18:05:32.413Z,22.07
2018-10-09T18:10:35.681Z,22.11
2018-10-09T18:15:38.949Z,22.09
2018-10-09T18:20:42.364Z,22.14
2018-10-09T18:25:45.673Z,22.06
2018-10-09T18:30:48.932Z,22.06
2018-10-09T18:35:52.348Z,22.06
2018-10-09T18:40:55.736Z,22.00
2018-10-09T18:45:58.991Z,22.04
2018-10-09T18:51:02.264Z,22.04
2018-10-09T18:56:05.552Z,21.98
2018-10-09T19:01:09.319Z,21.97
2018-10-09T19:06:12.596Z,21.99
2018-10-09T19:11:15.877Z,21.92
2018-10-09T19:16:19.302Z,21.92
2018-10-09T19:21:22.628Z,21.98
2018-10-09T19:26:26.083Z,21.98
2018-10-09T19:31:29.444Z,21.92
2018-10-09T19:36:32.727Z,21.92
2018-10-09T19:41:36.161Z,21.97
2018-10-09T19:46:39.659Z,22.03
2018-10-09T19:51:43.098Z,22.11
2018-10-09T19:56:46.428Z,22.16
2018-10-09T20:01:50.079Z,22.05
2018-10-09T20:06:53.364Z,22.01
2018-10-09T20:11:56.652Z,22.02
2018-10-09T20:16:59.952Z,21.98
2018-10-09T20:22:03.248Z,21.99
2018-10-09T20:27:06.544Z,21.95
2018-10-09T20:32:09.837Z,21.88
2018-10-09T20:37:13.131Z,21.92
2018-10-09T20:42:16.420Z,21.89
2018-10-09T20:47:25.040Z,21.94
2018-10-09T20:52:28.328Z,21.86
2018-10-09T20:57:31.608Z,21.86
2018-10-09T21:02:35.148Z,21.86
2018-10-09T21:07:38.440Z,21.84
2018-10-09T21:12:41.724Z,21.82
2018-10-09T21:17:45.132Z,21.79
2018-10-09T21:22:48.746Z,21.79
2018-10-09T21:27:52.060Z,21.75
2018-10-09T21:32:55.367Z,21.80
2018-10-09T21:37:58.692Z,21.80
2018-10-09T21:43:01.980Z,21.79
2018-10-09T21:48:05.659Z,21.78
2018-10-09T21:53:08.988Z,21.78
2018-10-09T21:58:12.268Z,21.74
2018-10-09T22:03:15.556Z,21.77
2018-10-09T22:08:18.852Z,21.78
2018-10-09T22:13:22.216Z,21.75
2018-10-09T22:18:25.507Z,21.75
2018-10-09T22:23:28.807Z,21.71
2018-10-09T22:28:32.095Z,21.70
2018-10-09T22:33:35.383Z,21.77
2018-10-09T22:38:38.726Z,21.75
2018-10-09T22:43:42.061Z,21.73
2018-10-09T22:48:45.431Z,21.72
2018-10-09T22:53:48.840Z,21.72
2018-10-09T22:58:52.122Z,21.67
2018-10-09T23:03:55.400Z,21.71
2018-10-09T23:08:58.692Z,21.70
2018-10-09T23:14:01.988Z,21.72
2018-10-09T23:19:05.561Z,21.70
2018-10-09T23:24:08.983Z,21.69
2018-10-09T23:29:12.272Z,21.72
2018-10-09T23:34:15.560Z,21.71
2018-10-09T23:39:18.845Z,21.68
2018-10-09T23:44:22.147Z,21.69
2018-10-09T23:49:25.435Z,21.69
2018-10-09T23:54:28.712Z,21.69
2018-10-09T23:59:32.000Z,21.72
